createdAt,value
2019-01-23T00:01:58.390Z,32.07
2019-01-23T00:04:24.527Z,32.63
2019-01-23T00:06:50.686Z,27.73
2019-01-23T00:09:16.770Z,33.50
2019-01-23T00:11:42.896Z,26.03
2019-01-23T00:14:09.019Z,27.07
2019-01-23T00:16:35.095Z,43.13
2019-01-23T00:19:01.211Z,32.17
2019-01-23T00:21:27.331Z,31.57
2019-01-23T00:23:53.562Z,28.70
2019-01-23T00:26:19.662Z,38.93
2019-01-23T00:28:45.836Z,41.90
2019-01-23T00:31:11.915Z,32.90
2019-01-23T00:33:38.039Z,27.43
2019-01-23T00:36:04.154Z,28.60
2019-01-23T00:38:30.260Z,30.07
2019-01-23T00:40:56.379Z,34.13
2019-01-23T00:43:22.507Z,30.60
2019-01-23T00:45:48.663Z,32.53
2019-01-23T00:48:14.827Z,28.60
2019-01-23T00:50:40.944Z,31.47
2019-01-23T00:53:07.038Z,34.13
2019-01-23T00:55:33.175Z,26.47
2019-01-23T00:57:59.283Z,32.07
2019-01-23T01:00:26.205Z,33.13
2019-01-23T01:02:52.527Z,39.00
2019-01-23T01:05:18.676Z,27.77
2019-01-23T01:07:44.862Z,32.87
2019-01-23T01:10:13.687Z,34.97
2019-01-23T01:12:39.779Z,28.87
2019-01-23T01:15:13.091Z,33.60
2019-01-23T01:17:34.594Z,34.67
2019-01-23T01:20:00.735Z,30.50
2019-01-23T01:22:28.744Z,39.53
2019-01-23T01:24:54.881Z,35.60
2019-01-23T01:27:20.966Z,37.67
2019-01-23T01:29:47.083Z,34.63
2019-01-23T01:32:13.208Z,25.73
2019-01-23T01:34:39.288Z,38.20
2019-01-23T01:37:05.402Z,31.27
2019-01-23T01:39:31.493Z,40.43
2019-01-23T01:41:57.625Z,34.23
2019-01-23T01:44:23.710Z,35.10
2019-01-23T01:46:49.838Z,24.97
2019-01-23T01:49:15.926Z,28.03
2019-01-23T01:51:42.047Z,38.80
2019-01-23T01:54:08.147Z,30.13
2019-01-23T01:56:34.259Z,34.57
2019-01-23T01:59:02.844Z,34.57
2019-01-23T02:01:28.399Z,39.77
2019-01-23T02:03:54.491Z,36.40
2019-01-23T02:06:20.606Z,32.50
2019-01-23T02:08:46.719Z,33.00
2019-01-23T02:11:12.911Z,32.23
2019-01-23T02:13:39.022Z,33.83
2019-01-23T02:16:05.115Z,29.60
2019-01-23T02:18:31.229Z,39.00
2019-01-23T02:20:58.119Z,40.37
2019-01-23T02:23:24.242Z,30.73
2019-01-23T02:25:50.325Z,33.87
2019-01-23T02:28:16.452Z,27.63
2019-01-23T02:30:42.570Z,29.20
2019-01-23T02:33:08.670Z,36.03
2019-01-23T02:35:34.772Z,29.70
2019-01-23T02:38:00.868Z,30.33
2019-01-23T02:40:27.004Z,28.83
2019-01-23T02:42:53.157Z,27.90
2019-01-23T02:45:19.234Z,25.97
2019-01-23T02:47:45.318Z,24.57
2019-01-23T02:50:12.927Z,31.37
2019-01-23T02:52:39.023Z,26.07
2019-01-23T02:55:07.338Z,26.93
2019-01-23T02:57:33.423Z,32.80
2019-01-23T02:59:59.577Z,30.37
2019-01-23T03:02:25.762Z,31.53
2019-01-23T03:04:51.891Z,31.70
2019-01-23T03:07:17.983Z,29.17
2019-01-23T03:09:44.090Z,22.17
2019-01-23T03:12:10.179Z,27.47
2019-01-23T03:14:36.318Z,27.87
2019-01-23T03:17:02.405Z,34.63
2019-01-23T03:19:28.617Z,25.93
2019-01-23T03:21:54.710Z,32.67
2019-01-23T03:24:20.814Z,26.47
2019-01-23T03:26:46.943Z,26.23
2019-01-23T03:29:13.016Z,30.83
2019-01-23T03:31:39.144Z,32.07
2019-01-23T03:34:05.286Z,31.50
2019-01-23T03:36:31.498Z,30.77
2019-01-23T03:38:57.613Z,31.07
2019-01-23T03:41:23.713Z,26.10
2019-01-23T03:43:49.831Z,29.47
2019-01-23T03:46:15.928Z,27.83
2019-01-23T03:48:42.036Z,30.27
2019-01-23T03:51:08.150Z,26.43
2019-01-23T03:53:34.257Z,24.80
2019-01-23T03:56:01.781Z,28.57
2019-01-23T03:58:27.887Z,34.30
2019-01-23T04:00:53.990Z,31.23
2019-01-23T04:03:20.111Z,34.67
2019-01-23T04:05:46.260Z,33.67
2019-01-23T04:08:12.384Z,31.60
2019-01-23T04:10:38.503Z,34.27
2019-01-23T04:13:04.606Z,39.10
2019-01-23T04:15:30.797Z,32.70
2019-01-23T04:17:56.914Z,33.00
2019-01-23T04:20:23.014Z,33.47
2019-01-23T04:22:49.132Z,32.37
2019-01-23T04:25:15.238Z,23.80
2019-01-23T04:27:41.359Z,32.57
2019-01-23T04:30:17.289Z,31.67
2019-01-23T04:32:43.423Z,34.03
2019-01-23T04:35:09.531Z,32.50
2019-01-23T04:37:35.635Z,35.63
2019-01-23T04:40:02.260Z,29.73
2019-01-23T04:42:28.344Z,30.53
2019-01-23T04:44:54.464Z,33.87
2019-01-23T04:47:20.555Z,32.53
2019-01-23T04:49:46.665Z,29.67
2019-01-23T04:52:14.696Z,31.23
2019-01-23T04:54:40.798Z,31.77
2019-01-23T04:57:06.896Z,32.50
2019-01-23T04:59:33.099Z,32.93
2019-01-23T05:01:59.232Z,30.10
2019-01-23T05:04:25.448Z,32.43
2019-01-23T05:06:51.899Z,33.20
2019-01-23T05:09:18.069Z,37.50
2019-01-23T05:11:44.150Z,29.73
2019-01-23T05:14:10.324Z,27.00
2019-01-23T05:16:36.406Z,33.93
2019-01-23T05:19:02.537Z,34.90
2019-01-23T05:21:28.650Z,28.63
2019-01-23T05:23:54.798Z,25.83
2019-01-23T05:26:20.918Z,31.93
2019-01-23T05:49:52.023Z,27.23
2019-01-23T05:52:18.387Z,36.27
2019-01-23T05:54:44.548Z,31.63
2019-01-23T05:57:10.724Z,33.37
2019-01-23T05:59:36.832Z,34.90
2019-01-23T06:02:03.038Z,26.87
2019-01-23T06:04:29.148Z,31.43
2019-01-23T06:06:55.579Z,27.50
2019-01-23T06:09:22.809Z,28.37
2019-01-23T06:11:49.411Z,34.77
2019-01-23T06:14:15.495Z,29.63
2019-01-23T06:16:41.619Z,31.57
2019-01-23T06:19:07.758Z,32.30
2019-01-23T06:21:33.894Z,31.07
2019-01-23T06:23:59.997Z,35.90
2019-01-23T06:26:26.127Z,37.90
2019-01-23T06:28:52.491Z,36.87
2019-01-23T06:31:18.627Z,35.83
2019-01-23T06:33:44.755Z,33.67
2019-01-23T06:36:10.840Z,38.90
2019-01-23T06:38:36.967Z,34.27
2019-01-23T06:41:03.059Z,34.27
2019-01-23T06:43:29.174Z,38.57
2019-01-23T06:45:55.276Z,26.43
2019-01-23T06:48:21.739Z,37.57
2019-01-23T06:50:47.891Z,33.87
2019-01-23T06:53:14.360Z,34.70
2019-01-23T06:55:40.514Z,37.93
2019-01-23T06:58:06.630Z,38.70
2019-01-23T07:00:32.727Z,36.33
2019-01-23T07:02:58.846Z,36.37
2019-01-23T07:05:24.992Z,42.93
2019-01-23T07:07:51.083Z,38.83
2019-01-23T07:10:19.503Z,43.80
2019-01-23T07:12:45.605Z,32.07
2019-01-23T07:15:11.814Z,35.03
2019-01-23T07:17:37.914Z,37.63
2019-01-23T07:20:07.843Z,41.27
2019-01-23T07:22:33.946Z,33.13
2019-01-23T07:25:00.060Z,31.00
2019-01-23T07:27:26.147Z,42.43
2019-01-23T07:29:52.264Z,36.97
2019-01-23T07:32:18.374Z,47.37
2019-01-23T07:34:44.491Z,33.50
2019-01-23T07:37:10.601Z,38.07
2019-01-23T07:39:36.698Z,42.13
2019-01-23T07:42:02.822Z,38.17
2019-01-23T07:44:28.935Z,36.43
2019-01-23T07:46:55.014Z,37.90
2019-01-23T07:49:21.111Z,33.80
2019-01-23T07:51:47.235Z,31.73
2019-01-23T07:54:13.331Z,38.27
2019-01-23T07:56:39.479Z,39.43
2019-01-23T07:59:05.563Z,31.87
2019-01-23T08:01:31.716Z,38.33
2019-01-23T08:03:57.811Z,35.83
2019-01-23T08:06:23.960Z,32.57
2019-01-23T08:08:50.051Z,35.90
2019-01-23T08:11:16.166Z,71.80
2019-01-23T08:13:42.287Z,51.07
2019-01-23T08:16:08.476Z,45.07
2019-01-23T08:18:34.592Z,40.97
2019-01-23T08:21:00.707Z,38.47
2019-01-23T08:23:26.898Z,34.30
2019-01-23T08:25:53.542Z,39.00
2019-01-23T08:28:19.671Z,39.03
2019-01-23T08:30:45.788Z,34.47
2019-01-23T08:33:12.032Z,39.07
2019-01-23T08:35:38.111Z,33.57
2019-01-23T08:38:04.228Z,38.50
2019-01-23T08:40:30.340Z,33.07
2019-01-23T08:42:56.960Z,36.87
2019-01-23T08:45:23.053Z,38.00
2019-01-23T08:47:49.179Z,34.87
2019-01-23T08:50:36.660Z,31.77
2019-01-23T08:53:02.804Z,28.10
2019-01-23T08:55:28.897Z,37.60
2019-01-23T08:57:55.292Z,40.33
2019-01-23T09:00:21.386Z,46.03
2019-01-23T09:02:47.522Z,39.97
2019-01-23T09:05:13.649Z,36.57
2019-01-23T09:07:39.870Z,38.67
2019-01-23T09:10:15.095Z,42.73
2019-01-23T09:12:41.192Z,38.90
2019-01-23T09:15:15.932Z,43.23
2019-01-23T09:17:42.100Z,38.50
2019-01-23T09:20:16.659Z,41.93
2019-01-23T09:22:42.748Z,39.80
2019-01-23T09:25:11.851Z,36.23
2019-01-23T09:27:37.943Z,39.87
2019-01-23T09:30:16.611Z,40.77
2019-01-23T09:32:56.087Z,44.97
2019-01-23T09:35:47.064Z,41.07
2019-01-23T09:38:38.333Z,38.83
2019-01-23T09:41:17.369Z,42.37
2019-01-23T09:43:53.182Z,38.87
2019-01-23T09:46:23.088Z,45.00
2019-01-23T09:49:12.527Z,64.67
2019-01-23T09:52:04.055Z,45.40
2019-01-23T09:54:30.183Z,44.73
2019-01-23T09:56:56.286Z,49.47
2019-01-23T09:59:22.427Z,49.70
2019-01-23T10:01:48.539Z,46.47
2019-01-23T10:04:14.631Z,48.50
2019-01-23T10:06:40.792Z,52.77
2019-01-23T10:09:06.880Z,43.30
2019-01-23T10:11:33.011Z,46.17
2019-01-23T10:13:59.111Z,46.17
2019-01-23T10:16:25.237Z,42.77
2019-01-23T10:18:56.038Z,44.53
2019-01-23T10:21:19.356Z,46.43
2019-01-23T10:23:45.444Z,42.20
2019-01-23T10:26:11.583Z,42.57
2019-01-23T10:28:37.654Z,41.60
2019-01-23T10:31:06.778Z,36.40
2019-01-23T10:33:31.803Z,38.03
2019-01-23T10:35:57.930Z,42.93
2019-01-23T10:38:24.050Z,46.43
2019-01-23T10:40:50.147Z,45.60
2019-01-23T10:43:16.299Z,51.17
2019-01-23T10:45:42.407Z,43.97
2019-01-23T10:48:08.539Z,42.13
2019-01-23T10:50:34.667Z,49.13
2019-01-23T10:53:00.842Z,40.50
2019-01-23T10:55:26.935Z,44.63
2019-01-23T10:57:53.054Z,34.57
2019-01-23T11:00:23.374Z,43.97
2019-01-23T11:02:49.491Z,43.97
2019-01-23T11:05:20.661Z,39.27
2019-01-23T11:07:46.792Z,42.83
2019-01-23T11:10:16.523Z,40.47
2019-01-23T11:12:42.654Z,43.33
2019-01-23T11:15:08.734Z,38.60
2019-01-23T11:17:34.860Z,47.00
2019-01-23T11:20:00.940Z,39.17
2019-01-23T11:22:27.083Z,38.13
2019-01-23T11:24:53.188Z,37.78
2019-01-23T11:27:19.293Z,41.27
2019-01-23T11:29:45.415Z,39.73
2019-01-23T11:32:11.507Z,42.67
2019-01-23T11:34:37.640Z,36.50
2019-01-23T11:37:03.752Z,40.35
2019-01-23T11:39:29.857Z,37.97
2019-01-23T11:41:55.985Z,38.08
2019-01-23T11:44:22.122Z,43.78
2019-01-23T11:46:48.216Z,42.95
2019-01-23T11:49:14.331Z,41.33
2019-01-23T11:51:40.449Z,37.20
2019-01-23T11:54:06.587Z,38.80
2019-01-23T11:56:32.688Z,41.53
2019-01-23T11:58:58.816Z,38.70
2019-01-23T12:01:27.666Z,38.63
2019-01-23T12:03:52.950Z,36.10
2019-01-23T12:06:19.371Z,34.07
2019-01-23T12:08:45.496Z,36.27
2019-01-23T12:11:11.588Z,38.57
2019-01-23T12:13:37.735Z,39.90
2019-01-23T12:16:03.891Z,35.43
2019-01-23T12:18:29.979Z,40.40
2019-01-23T12:20:56.104Z,41.40
2019-01-23T12:23:22.206Z,34.87
2019-01-23T12:25:48.358Z,41.47
2019-01-23T12:28:14.503Z,42.93
2019-01-23T12:30:40.611Z,36.00
2019-01-23T12:33:06.709Z,40.00
2019-01-23T12:35:32.804Z,43.67
2019-01-23T12:37:58.935Z,38.20
2019-01-23T12:40:25.144Z,39.57
2019-01-23T12:42:51.257Z,40.67
2019-01-23T12:45:25.889Z,41.77
2019-01-23T12:47:51.975Z,43.47
2019-01-23T12:50:21.096Z,41.70
2019-01-23T12:52:47.228Z,37.23
2019-01-23T12:55:13.374Z,43.97
2019-01-23T12:57:39.512Z,42.63
2019-01-23T13:00:12.410Z,38.90
2019-01-23T13:02:38.605Z,45.47
2019-01-23T13:05:07.695Z,44.13
2019-01-23T13:07:33.867Z,42.17
2019-01-23T13:09:59.972Z,47.62
2019-01-23T13:12:26.204Z,45.53
2019-01-23T13:14:52.295Z,43.70
2019-01-23T13:17:18.449Z,37.93
2019-01-23T13:19:44.601Z,39.73
2019-01-23T13:22:10.702Z,39.13
2019-01-23T13:24:36.841Z,41.10
2019-01-23T13:27:03.128Z,44.43
2019-01-23T13:29:29.313Z,43.10
2019-01-23T13:31:55.432Z,33.37
2019-01-23T13:34:21.562Z,36.00
2019-01-23T13:36:47.682Z,41.30
2019-01-23T13:39:14.312Z,35.23
2019-01-23T13:41:40.406Z,37.70
2019-01-23T13:44:06.539Z,41.03
2019-01-23T13:46:32.633Z,45.87
2019-01-23T13:48:58.767Z,44.00
2019-01-23T13:51:24.914Z,39.90
2019-01-23T13:53:51.063Z,38.17
2019-01-23T13:56:17.204Z,42.90
2019-01-23T13:58:43.306Z,48.10
2019-01-23T14:01:09.538Z,37.57
2019-01-23T14:03:35.667Z,39.53
2019-01-23T14:06:01.871Z,45.60
2019-01-23T14:08:28.572Z,40.27
2019-01-23T14:10:54.978Z,45.27
2019-01-23T14:13:21.082Z,38.73
2019-01-23T14:15:47.254Z,48.90
2019-01-23T14:18:13.368Z,49.20
2019-01-23T14:20:39.487Z,42.10
2019-01-23T14:23:05.590Z,40.57
2019-01-23T14:25:31.732Z,45.53
2019-01-23T14:27:57.846Z,44.03
2019-01-23T14:30:30.279Z,42.30
2019-01-23T14:32:56.391Z,42.30
2019-01-23T14:35:22.496Z,42.37
2019-01-23T14:37:48.628Z,45.30
2019-01-23T14:40:14.738Z,47.07
2019-01-23T14:42:41.062Z,40.53
2019-01-23T14:45:15.929Z,43.57
2019-01-23T14:47:42.167Z,40.23
2019-01-23T14:50:11.466Z,43.83
2019-01-23T14:52:38.006Z,45.37
2019-01-23T14:55:06.410Z,35.43
2019-01-23T14:57:32.656Z,47.33
2019-01-23T14:59:58.864Z,44.87
2019-01-23T15:02:25.011Z,43.60
2019-01-23T15:04:51.131Z,46.07
2019-01-23T15:07:17.503Z,40.43
2019-01-23T15:09:43.713Z,48.40
2019-01-23T15:12:10.043Z,47.87
2019-01-23T15:14:36.187Z,35.13
2019-01-23T15:17:02.783Z,38.90
2019-01-23T15:19:28.935Z,39.53
2019-01-23T15:21:55.042Z,39.60
2019-01-23T15:24:21.311Z,39.23
2019-01-23T15:26:48.053Z,47.67
2019-01-23T15:29:14.278Z,42.60
2019-01-23T15:31:40.576Z,40.10
2019-01-23T15:34:07.329Z,39.67
2019-01-23T15:36:33.466Z,41.50
2019-01-23T15:38:59.785Z,37.87
2019-01-23T15:41:26.003Z,47.53
2019-01-23T15:43:52.271Z,48.57
2019-01-23T15:46:18.490Z,43.93
2019-01-23T15:48:44.721Z,45.37
2019-01-23T15:51:10.927Z,43.40
2019-01-23T15:53:37.094Z,47.23
2019-01-23T15:56:03.590Z,42.90
2019-01-23T15:58:29.725Z,43.40
2019-01-23T16:00:55.951Z,44.33
2019-01-23T16:03:22.270Z,48.90
2019-01-23T16:05:48.416Z,43.17
2019-01-23T16:08:14.636Z,38.03
2019-01-23T16:10:41.079Z,42.43
2019-01-23T16:13:07.305Z,45.67
2019-01-23T16:15:33.994Z,42.60
2019-01-23T16:18:00.286Z,50.37
2019-01-23T16:20:27.246Z,46.73
2019-01-23T16:22:53.694Z,44.47
2019-01-23T16:25:20.080Z,41.37
2019-01-23T16:27:46.293Z,44.87
2019-01-23T16:30:16.163Z,45.67
2019-01-23T16:32:42.532Z,41.37
2019-01-23T16:35:09.144Z,54.27
2019-01-23T16:37:35.595Z,46.33
2019-01-23T16:40:04.239Z,43.80
2019-01-23T16:42:30.608Z,46.20
2019-01-23T16:44:56.846Z,42.13
2019-01-23T16:47:23.073Z,50.27
2019-01-23T16:49:49.274Z,51.90
2019-01-23T16:52:15.568Z,43.20
2019-01-23T16:54:44.953Z,49.73
2019-01-23T16:57:12.367Z,49.90
2019-01-23T16:59:38.739Z,53.17
2019-01-23T17:02:05.100Z,46.83
2019-01-23T17:04:31.403Z,46.80
2019-01-23T17:06:57.679Z,46.50
2019-01-23T17:09:23.903Z,50.30
2019-01-23T17:11:50.198Z,45.13
2019-01-23T17:14:16.498Z,51.97
2019-01-23T17:16:42.700Z,51.80
2019-01-23T17:19:08.985Z,43.93
2019-01-23T17:21:35.210Z,50.10
2019-01-23T17:24:01.466Z,48.20
2019-01-23T17:26:28.182Z,53.33
2019-01-23T17:28:54.375Z,52.53
2019-01-23T17:31:20.848Z,46.07
2019-01-23T17:33:47.611Z,44.53
2019-01-23T17:36:13.736Z,38.67
2019-01-23T17:38:39.978Z,36.97
2019-01-23T17:41:06.470Z,30.23
2019-01-23T17:43:33.583Z,40.13
2019-01-23T17:45:59.669Z,39.27
2019-01-23T17:48:25.935Z,36.50
2019-01-23T17:50:52.324Z,41.03
2019-01-23T17:53:19.540Z,35.87
2019-01-23T17:55:45.653Z,40.67
2019-01-23T17:58:12.039Z,35.67
2019-01-23T18:00:40.472Z,32.50
2019-01-23T18:03:07.218Z,42.83
2019-01-23T18:05:33.521Z,34.07
2019-01-23T18:07:59.768Z,38.80
2019-01-23T18:10:26.119Z,37.47
2019-01-23T18:12:52.778Z,51.67
2019-01-23T18:15:25.613Z,42.43
2019-01-23T18:17:51.943Z,41.43
2019-01-23T18:20:24.133Z,39.47
2019-01-23T18:22:50.372Z,60.88
2019-01-23T18:25:17.231Z,55.27
2019-01-23T18:27:44.540Z,59.90
2019-01-23T18:30:21.054Z,56.90
2019-01-23T18:32:48.685Z,65.03
2019-01-23T18:35:27.286Z,52.57
2019-01-23T18:38:15.524Z,50.30
2019-01-23T18:40:57.439Z,54.47
2019-01-23T18:43:27.386Z,46.90
2019-01-23T18:45:57.349Z,47.70
2019-01-23T18:48:41.870Z,56.10
2019-01-23T18:51:12.213Z,40.97
2019-01-23T18:53:38.514Z,52.03
2019-01-23T18:56:05.804Z,55.20
2019-01-23T18:58:32.380Z,47.00
2019-01-23T19:00:58.723Z,55.73
2019-01-23T19:03:25.366Z,58.40
2019-01-23T19:05:52.529Z,60.33
2019-01-23T19:08:19.230Z,46.33
2019-01-23T19:10:45.936Z,47.73
2019-01-23T19:13:13.494Z,49.97
2019-01-23T19:15:40.111Z,41.20
2019-01-23T19:18:06.609Z,45.03
2019-01-23T19:20:32.930Z,43.17
2019-01-23T19:22:59.104Z,42.83
2019-01-23T19:25:25.427Z,49.20
2019-01-23T19:27:51.827Z,54.23
2019-01-23T19:30:21.862Z,44.87
2019-01-23T19:32:49.173Z,45.50
2019-01-23T19:35:15.575Z,48.17
2019-01-23T19:37:42.223Z,47.73
2019-01-23T19:40:10.304Z,45.47
2019-01-23T19:42:36.538Z,48.17
2019-01-23T19:45:06.485Z,52.07
2019-01-23T19:47:32.996Z,57.17
2019-01-23T19:49:59.202Z,46.97
2019-01-23T19:52:27.977Z,53.13
2019-01-23T19:54:54.225Z,45.87
2019-01-23T19:57:20.442Z,52.10
2019-01-23T19:59:46.868Z,46.57
2019-01-23T20:02:13.256Z,47.77
2019-01-23T20:04:39.668Z,48.60
2019-01-23T20:07:06.418Z,55.90
2019-01-23T20:09:32.759Z,49.27
2019-01-23T20:11:59.122Z,45.63
2019-01-23T20:14:26.701Z,54.70
2019-01-23T20:16:52.946Z,51.13
2019-01-23T20:19:19.280Z,48.40
2019-01-23T20:21:45.605Z,56.40
2019-01-23T20:24:11.894Z,45.90
2019-01-23T20:26:38.479Z,50.23
2019-01-23T20:29:05.112Z,59.03
2019-01-23T20:31:32.181Z,45.23
2019-01-23T20:33:58.285Z,46.37
2019-01-23T20:36:24.635Z,51.07
2019-01-23T20:38:50.965Z,45.97
2019-01-23T20:41:17.346Z,52.00
2019-01-23T20:43:43.765Z,49.47
2019-01-23T20:46:10.136Z,42.40
2019-01-23T20:48:36.272Z,47.20
2019-01-23T20:51:03.099Z,54.20
2019-01-23T20:53:29.948Z,43.60
2019-01-23T20:55:56.240Z,50.30
2019-01-23T20:58:22.557Z,45.47
2019-01-23T21:00:48.944Z,47.40
2019-01-23T21:03:15.070Z,48.27
2019-01-23T21:05:41.543Z,52.20
2019-01-23T21:08:07.751Z,43.50
2019-01-23T21:10:34.159Z,51.90
2019-01-23T21:13:00.477Z,45.00
2019-01-23T21:15:28.533Z,48.93
2019-01-23T21:17:54.654Z,42.10
2019-01-23T21:20:21.159Z,51.87
2019-01-23T21:22:47.499Z,46.37
2019-01-23T21:25:14.211Z,44.77
2019-01-23T21:27:42.135Z,50.60
2019-01-23T21:30:12.138Z,40.97
2019-01-23T21:32:38.401Z,41.97
2019-01-23T21:35:06.942Z,50.83
2019-01-23T21:37:33.078Z,37.30
2019-01-23T21:39:59.227Z,54.93
2019-01-23T21:42:25.376Z,45.50
2019-01-23T21:44:51.596Z,51.50
2019-01-23T21:47:17.836Z,49.47
2019-01-23T21:49:44.061Z,45.67
2019-01-23T21:52:10.301Z,42.07
2019-01-23T21:54:36.588Z,43.37
2019-01-23T21:57:03.215Z,42.63
2019-01-23T21:59:29.444Z,43.77
2019-01-23T22:01:55.662Z,39.30
2019-01-23T22:04:22.379Z,49.53
2019-01-23T22:06:48.535Z,41.97
2019-01-23T22:09:14.899Z,45.37
2019-01-23T22:11:43.731Z,49.07
2019-01-23T22:14:09.052Z,45.17
2019-01-23T22:16:35.268Z,43.53
2019-01-23T22:19:01.700Z,42.17
2019-01-23T22:21:27.940Z,43.23
2019-01-23T22:23:54.097Z,41.93
2019-01-23T22:26:20.256Z,34.93
2019-01-23T22:28:46.342Z,37.13
2019-01-23T22:31:12.472Z,40.90
2019-01-23T22:33:38.609Z,44.43
2019-01-23T22:36:04.955Z,36.37
2019-01-23T22:38:31.164Z,42.23
2019-01-23T22:40:57.331Z,37.73
2019-01-23T22:43:23.563Z,38.50
2019-01-23T22:45:49.824Z,39.93
2019-01-23T22:48:16.025Z,42.77
2019-01-23T22:50:42.168Z,44.33
2019-01-23T22:53:08.268Z,39.17
2019-01-23T22:55:34.488Z,31.60
2019-01-23T22:58:00.712Z,37.43
2019-01-23T23:00:32.583Z,38.87
2019-01-23T23:02:59.288Z,40.90
2019-01-23T23:05:25.527Z,40.50
2019-01-23T23:07:51.768Z,42.40
2019-01-23T23:10:18.699Z,42.13
2019-01-23T23:12:44.984Z,41.37
2019-01-23T23:15:12.096Z,37.90
2019-01-23T23:17:38.340Z,33.03
2019-01-23T23:20:07.608Z,38.30
2019-01-23T23:22:33.743Z,40.23
2019-01-23T23:24:59.949Z,37.97
2019-01-23T23:27:26.066Z,37.07
2019-01-23T23:29:52.285Z,42.10
2019-01-23T23:32:18.403Z,39.80
2019-01-23T23:34:44.510Z,37.03
2019-01-23T23:37:10.746Z,41.27
2019-01-23T23:39:36.834Z,41.20
2019-01-23T23:42:03.232Z,39.87
2019-01-23T23:44:29.483Z,39.03
2019-01-23T23:46:55.705Z,37.40
2019-01-23T23:49:22.010Z,39.23
2019-01-23T23:51:48.152Z,33.73
2019-01-23T23:54:14.298Z,37.50
2019-01-23T23:56:40.427Z,37.20
2019-01-23T23:59:06.762Z,38.07
